Mt Bomar Mars — 9HCM9 — position and weather

sailwx.info

Track history (hours):
 
Tides and Currents Weather Stations Pressure Air Temp Water Temp Dewpoint Dewpoint Depression Visibility Wind Speed Wind Dir Waves Ship Positions

Mt Bomar Mars

Last reported at 2015-Apr-17 09:33 UTC. Time now 2015-Apr-18 16:41 UTC.
Position N 39°16' W 009°57'.

Length 107 m; draft 6.6 m.

Type: Ship. MMSI: 256784000.

Date/timePositionNaut miles runAvg speedWind from/ knotsBaromVisibWave heightAir tempDewpointWater temp
2015-Apr-17 09:33N 39°16' W 009°57'1111.2
2015-Apr-17 08:33N 39°04' W 009°56'1111.1
2015-Apr-17 07:33N 38°53' W 009°57'1111.1
2015-Apr-17 06:33N 38°42' W 009°57'1111.0
2015-Apr-17 05:33N 38°32' W 009°54'1111.3
2015-Apr-17 04:33N 38°21' W 009°51'1211.6
2015-Apr-17 03:32N 38°09' W 009°47'2311.5
2015-Apr-17 01:33N 37°47' W 009°40'85 9.5
2015-Apr-16 16:33N 36°39' W 008°36'1111.2
2015-Apr-16 15:33N 36°40' W 008°22'1111.1
2015-Apr-16 14:33N 36°41' W 008°08'5 0.2
2015-Apr-15 07:08N 36°41' W 008°02'913.3
2015-Apr-15 06:29N 36°38' W 008°12'97 9.8
2015-Apr-14 20:32N 37°39' W 009°48'1712.2
2015-Apr-14 19:08N 37°56' W 009°53'1212.1
2015-Apr-14 18:07N 38°07' W 009°57'712.0
2015-Apr-14 17:29N 38°15' W 009°59'1212.3
2015-Apr-14 16:33N 38°26' W 010°02'1312.7
2015-Apr-14 15:33N 38°38' W 010°05'1312.9
2015-Apr-14 14:34N 38°51' W 010°06'1313.2
2015-Apr-14 13:33N 39°05' W 010°06'1312.8
2015-Apr-14 12:31N 39°18' W 010°07'  
2015-Apr-10 05:33N 49°03' W 006°13'1111.2
2015-Apr-10 04:33N 49°14' W 006°11'3611.9
2015-Apr-10 01:33N 49°49' W 006°03'3812.8
2015-Apr-09 22:33N 50°27' W 006°01'6112.1
2015-Apr-09 17:30N 51°29' W 005°59'1213.2
2015-Apr-09 16:33N 51°41' W 005°58'13110.9
2015-Apr-09 04:33N 53°34' W 004°08'1413.6
2015-Apr-09 03:33N 53°34' W 003°45'1312.6
2015-Apr-09 02:33N 53°32' W 003°24'1110.9
2015-Apr-09 01:33N 53°30' W 003°06'9 9.5
2015-Apr-09 00:33N 53°22' W 002°58'3 2.7
2015-Apr-08 23:28N 53°19' W 002°57'0 0.0
2015-Apr-08 22:31N 53°19' W 002°57'0 0.0
2015-Apr-08 21:31N 53°19' W 002°57'0 0.0
2015-Apr-08 20:28N 53°19' W 002°57'0 0.0
2015-Apr-08 19:31N 53°19' W 002°57'0 0.0
2015-Apr-08 18:31N 53°19' W 002°57'0 0.0
2015-Apr-08 17:28N 53°19' W 002°57'0 0.0
2015-Apr-08 16:28N 53°19' W 002°57'0 0.0
2015-Apr-08 15:28N 53°19' W 002°57'0 0.0
2015-Apr-08 14:31N 53°19' W 002°57'0 0.0
2015-Apr-08 13:31N 53°19' W 002°57'0 0.0
2015-Apr-08 12:25N 53°19' W 002°57'0 0.0
2015-Apr-08 11:14N 53°19' W 002°57'2 2.5
2015-Apr-08 10:34N 53°18' W 002°54'5 5.0
2015-Apr-08 09:34N 53°18' W 002°46'2 1.9
2015-Apr-08 08:32N 53°20' W 002°45'0 0.0
2015-Apr-08 07:32N 53°20' W 002°45'0 0.0
2015-Apr-08 06:32N 53°20' W 002°45'0 0.0
2015-Apr-08 05:29N 53°20' W 002°45'0 0.0
2015-Apr-08 04:32N 53°20' W 002°45'0 0.0
2015-Apr-08 03:26N 53°20' W 002°45'0 0.0
2015-Apr-08 02:23N 53°20' W 002°45'0 0.0
2015-Apr-08 01:23N 53°20' W 002°45'0 0.0
2015-Apr-08 00:32N 53°20' W 002°45'0 0.0
2015-Apr-07 23:29N 53°20' W 002°45'0 0.0
2015-Apr-07 22:23N 53°20' W 002°45'0 0.0
2015-Apr-07 21:32N 53°20' W 002°45'0 0.0
2015-Apr-07 20:32N 53°20' W 002°45'0 0.0
2015-Apr-07 19:32N 53°20' W 002°45'0 0.0
2015-Apr-07 18:32N 53°20' W 002°45'0 0.0
2015-Apr-07 17:20N 53°20' W 002°45'0 0.0
2015-Apr-07 16:33N 53°20' W 002°45'3 2.7
2015-Apr-07 15:33N 53°18' W 002°47'5 5.5
2015-Apr-07 14:33N 53°19' W 002°56'2 1.6
2015-Apr-07 13:33N 53°20' W 002°57'4 4.0
2015-Apr-07 12:33N 53°24' W 003°00'9 9.0
2015-Apr-07 11:33N 53°32' W 003°08'10 9.5
2015-Apr-07 10:33N 53°31' W 003°24'1 1.1
2015-Apr-07 09:33N 53°31' W 003°26'  
Track history (hours):
 
Tides and Currents Weather Stations Pressure Air Temp Water Temp Dewpoint Dewpoint Depression Visibility Wind Speed Wind Dir Waves Ship Positions

Mt Bomar Mars

Last reported at 2015-Apr-17 09:33 UTC. Time now 2015-Apr-18 16:41 UTC.
Position N 39°16' W 009°57'.

Length 107 m; draft 6.6 m.

Type: Ship. MMSI: 256784000.

Date/timePositionNaut miles runAvg speedWind from/ knotsBaromVisibWave heightAir tempDewpointWater temp
2015-Apr-17 09:33N 39°16' W 009°57'1111.2
2015-Apr-17 08:33N 39°04' W 009°56'1111.1
2015-Apr-17 07:33N 38°53' W 009°57'1111.1
2015-Apr-17 06:33N 38°42' W 009°57'1111.0
2015-Apr-17 05:33N 38°32' W 009°54'1111.3
2015-Apr-17 04:33N 38°21' W 009°51'1211.6
2015-Apr-17 03:32N 38°09' W 009°47'2311.5
2015-Apr-17 01:33N 37°47' W 009°40'85 9.5
2015-Apr-16 16:33N 36°39' W 008°36'1111.2
2015-Apr-16 15:33N 36°40' W 008°22'1111.1
2015-Apr-16 14:33N 36°41' W 008°08'5 0.2
2015-Apr-15 07:08N 36°41' W 008°02'913.3
2015-Apr-15 06:29N 36°38' W 008°12'97 9.8
2015-Apr-14 20:32N 37°39' W 009°48'1712.2
2015-Apr-14 19:08N 37°56' W 009°53'1212.1
2015-Apr-14 18:07N 38°07' W 009°57'712.0
2015-Apr-14 17:29N 38°15' W 009°59'1212.3
2015-Apr-14 16:33N 38°26' W 010°02'1312.7
2015-Apr-14 15:33N 38°38' W 010°05'1312.9
2015-Apr-14 14:34N 38°51' W 010°06'1313.2
2015-Apr-14 13:33N 39°05' W 010°06'1312.8
2015-Apr-14 12:31N 39°18' W 010°07'  
2015-Apr-10 05:33N 49°03' W 006°13'1111.2
2015-Apr-10 04:33N 49°14' W 006°11'3611.9
2015-Apr-10 01:33N 49°49' W 006°03'3812.8
2015-Apr-09 22:33N 50°27' W 006°01'6112.1
2015-Apr-09 17:30N 51°29' W 005°59'1213.2
2015-Apr-09 16:33N 51°41' W 005°58'13110.9
2015-Apr-09 04:33N 53°34' W 004°08'1413.6
2015-Apr-09 03:33N 53°34' W 003°45'1312.6
2015-Apr-09 02:33N 53°32' W 003°24'1110.9
2015-Apr-09 01:33N 53°30' W 003°06'9 9.5
2015-Apr-09 00:33N 53°22' W 002°58'3 2.7
2015-Apr-08 23:28N 53°19' W 002°57'0 0.0
2015-Apr-08 22:31N 53°19' W 002°57'0 0.0
2015-Apr-08 21:31N 53°19' W 002°57'0 0.0
2015-Apr-08 20:28N 53°19' W 002°57'0 0.0
2015-Apr-08 19:31N 53°19' W 002°57'0 0.0
2015-Apr-08 18:31N 53°19' W 002°57'0 0.0
2015-Apr-08 17:28N 53°19' W 002°57'0 0.0
2015-Apr-08 16:28N 53°19' W 002°57'0 0.0
2015-Apr-08 15:28N 53°19' W 002°57'0 0.0
2015-Apr-08 14:31N 53°19' W 002°57'0 0.0
2015-Apr-08 13:31N 53°19' W 002°57'0 0.0
2015-Apr-08 12:25N 53°19' W 002°57'0 0.0
2015-Apr-08 11:14N 53°19' W 002°57'2 2.5
2015-Apr-08 10:34N 53°18' W 002°54'5 5.0
2015-Apr-08 09:34N 53°18' W 002°46'2 1.9
2015-Apr-08 08:32N 53°20' W 002°45'0 0.0
2015-Apr-08 07:32N 53°20' W 002°45'0 0.0
2015-Apr-08 06:32N 53°20' W 002°45'0 0.0
2015-Apr-08 05:29N 53°20' W 002°45'0 0.0
2015-Apr-08 04:32N 53°20' W 002°45'0 0.0
2015-Apr-08 03:26N 53°20' W 002°45'0 0.0
2015-Apr-08 02:23N 53°20' W 002°45'0 0.0
2015-Apr-08 01:23N 53°20' W 002°45'0 0.0
2015-Apr-08 00:32N 53°20' W 002°45'0 0.0
2015-Apr-07 23:29N 53°20' W 002°45'0 0.0
2015-Apr-07 22:23N 53°20' W 002°45'0 0.0
2015-Apr-07 21:32N 53°20' W 002°45'0 0.0
2015-Apr-07 20:32N 53°20' W 002°45'0 0.0
2015-Apr-07 19:32N 53°20' W 002°45'0 0.0
2015-Apr-07 18:32N 53°20' W 002°45'0 0.0
2015-Apr-07 17:20N 53°20' W 002°45'0 0.0
2015-Apr-07 16:33N 53°20' W 002°45'3 2.7
2015-Apr-07 15:33N 53°18' W 002°47'5 5.5
2015-Apr-07 14:33N 53°19' W 002°56'2 1.6
2015-Apr-07 13:33N 53°20' W 002°57'4 4.0
2015-Apr-07 12:33N 53°24' W 003°00'9 9.0
2015-Apr-07 11:33N 53°32' W 003°08'10 9.5
2015-Apr-07 10:33N 53°31' W 003°24'1 1.1
2015-Apr-07 09:33N 53°31' W 003°26'  

Dump ship's entire track history